Time;durP1;ratioP1;P1;durP2;ratioP2;P2;SDS_P1;SDS_P2;PMS_P1;PMS_P2;Temp;Humidity;BMP_temperature;BMP_pressure;BME280_temperature;BME280_humidity;BME280_pressure;Samples;Min_cycle;Max_cycle;Signal;HPM_P1;HPM_P2
2024/01/14 00:01:19;;;;;;;9.43;6.35;;;-3.30;99.90;;;;;;4906121;29;20040;-33
2024/01/14 00:03:44;;;;;;;6.22;4.90;;;-3.20;99.90;;;;;;4900152;29;20043;-38
2024/01/14 00:06:10;;;;;;;9.45;6.88;;;-3.30;99.90;;;;;;4902852;29;20059;-35
2024/01/14 00:08:36;;;;;;;15.98;7.68;;;-3.30;99.90;;;;;;4903831;29;20046;-33
2024/01/14 00:11:02;;;;;;;24.30;9.50;;;-3.20;99.90;;;;;;4905274;29;20123;-41
2024/01/14 00:13:28;;;;;;;19.30;10.10;;;-3.20;99.90;;;;;;4908852;29;20032;-40
2024/01/14 00:15:53;;;;;;;20.88;10.07;;;-3.20;99.90;;;;;;4906473;29;20032;-41
2024/01/14 00:18:19;;;;;;;12.98;8.13;;;-3.10;99.90;;;;;;4902581;29;20479;-42
2024/01/14 00:20:44;;;;;;;10.05;5.47;;;-3.10;99.90;;;;;;4902263;29;20065;-37
2024/01/14 00:23:10;;;;;;;10.68;9.50;;;-3.20;99.90;;;;;;4903782;29;20182;-38
2024/01/14 00:25:36;;;;;;;17.30;7.95;;;-3.20;99.90;;;;;;4907361;29;20036;-41
2024/01/14 00:28:02;;;;;;;8.82;6.82;;;-3.20;99.90;;;;;;4907044;29;20123;-41
2024/01/14 00:30:27;;;;;;;3.88;3.45;;;-3.20;99.90;;;;;;4907043;29;21351;-41
2024/01/14 00:32:53;;;;;;;5.72;4.38;;;-3.20;99.90;;;;;;4905330;29;20040;-39
2024/01/14 00:35:18;;;;;;;5.65;3.50;;;-3.20;99.90;;;;;;4906427;29;20031;-40
2024/01/14 00:37:44;;;;;;;16.15;8.93;;;-3.30;99.90;;;;;;4904766;29;20032;-40
2024/01/14 00:40:10;;;;;;;13.68;6.43;;;-3.20;99.90;;;;;;4907003;29;20032;-41
2024/01/14 00:42:36;;;;;;;16.85;7.35;;;-3.20;99.90;;;;;;4886699;29;20028;-39
2024/01/14 00:45:02;;;;;;;10.60;4.05;;;-3.20;99.90;;;;;;4905282;29;20044;-41
2024/01/14 00:47:30;;;;;;;4.00;3.72;;;-3.20;99.90;;;;;;4908465;29;20039;-41
2024/01/14 00:49:56;;;;;;;12.70;6.30;;;-3.20;99.90;;;;;;4904796;29;20039;-41
2024/01/14 00:52:22;;;;;;;9.02;6.22;;;-3.20;99.90;;;;;;4905585;29;20629;-42
2024/01/14 00:54:47;;;;;;;16.23;8.93;;;-3.20;99.90;;;;;;4908127;29;20080;-38
2024/01/14 00:57:13;;;;;;;1.92;1.83;;;-3.20;99.90;;;;;;4906459;29;20087;-40
2024/01/14 00:59:39;;;;;;;19.65;9.52;;;-3.20;99.90;;;;;;4906641;29;20565;-38
2024/01/14 01:02:04;;;;;;;9.32;6.30;;;-3.20;99.90;;;;;;4905628;29;20632;-41
2024/01/14 01:04:30;;;;;;;6.80;6.15;;;-3.20;99.90;;;;;;4906846;29;20037;-40
2024/01/14 01:06:55;;;;;;;10.25;5.97;;;-3.20;99.90;;;;;;4907499;29;20056;-41
2024/01/14 01:09:21;;;;;;;12.20;6.63;;;-3.20;99.90;;;;;;4900019;29;20066;-41
2024/01/14 01:11:47;;;;;;;12.93;6.40;;;-3.20;99.90;;;;;;4904677;29;20112;-41
2024/01/14 01:14:14;;;;;;;10.23;6.47;;;-3.20;99.90;;;;;;4902680;29;20039;-40
2024/01/14 01:16:40;;;;;;;10.97;8.13;;;-3.20;99.90;;;;;;4905865;29;20124;-37
2024/01/14 01:19:06;;;;;;;7.57;4.00;;;-3.20;99.90;;;;;;4904955;29;20291;-38
2024/01/14 01:21:31;;;;;;;5.05;3.95;;;-3.20;99.90;;;;;;4906104;29;20043;-40
2024/01/14 01:23:57;;;;;;;9.93;5.00;;;-3.10;99.90;;;;;;4903568;29;20040;-40
2024/01/14 01:26:23;;;;;;;9.07;5.38;;;-3.10;99.90;;;;;;4901436;29;20036;-40
2024/01/14 01:28:48;;;;;;;13.32;8.25;;;-3.10;99.90;;;;;;4911088;29;20032;-36
2024/01/14 01:31:14;;;;;;;13.27;5.15;;;-3.10;99.90;;;;;;4902991;29;20627;-41
2024/01/14 01:33:40;;;;;;;3.67;3.25;;;-3.10;99.90;;;;;;4907257;29;20075;-40
2024/01/14 01:36:06;;;;;;;10.15;6.32;;;-3.20;99.90;;;;;;4904783;29;20036;-41
2024/01/14 01:38:32;;;;;;;8.05;4.32;;;-3.20;99.90;;;;;;4905428;29;20114;-40
2024/01/14 01:40:58;;;;;;;13.43;9.55;;;-3.20;99.90;;;;;;4904154;29;20119;-35
2024/01/14 01:43:24;;;;;;;20.08;9.45;;;-3.20;99.90;;;;;;4903844;29;20044;-35
2024/01/14 01:45:50;;;;;;;8.52;4.80;;;-3.20;99.90;;;;;;4904609;29;20088;-34
2024/01/14 01:48:15;;;;;;;21.30;6.65;;;-3.20;99.90;;;;;;4906582;29;20028;-34
2024/01/14 01:50:43;;;;;;;7.00;4.60;;;-3.20;99.90;;;;;;4907092;29;20083;-33
2024/01/14 01:53:09;;;;;;;9.50;6.55;;;-3.20;99.90;;;;;;4907287;29;20096;-33
2024/01/14 01:55:35;;;;;;;6.00;4.97;;;-3.30;99.90;;;;;;4894089;29;20474;-32
2024/01/14 01:58:01;;;;;;;17.88;8.45;;;-3.20;99.90;;;;;;4893233;29;20064;-34
2024/01/14 02:00:27;;;;;;;19.25;8.70;;;-3.30;99.90;;;;;;4906264;29;20032;-31
2024/01/14 02:02:53;;;;;;;9.85;4.80;;;-3.30;99.90;;;;;;4909215;29;20111;-34
2024/01/14 02:05:21;;;;;;;12.75;7.28;;;-3.30;99.90;;;;;;4905563;29;20723;-37
2024/01/14 02:07:46;;;;;;;5.20;4.68;;;-3.30;99.90;;;;;;4905468;29;20554;-35
2024/01/14 02:10:12;;;;;;;5.40;4.82;;;-3.30;99.90;;;;;;4905426;29;20032;-33
2024/01/14 02:12:38;;;;;;;15.88;9.30;;;-3.30;99.90;;;;;;4911083;29;20028;-34
2024/01/14 02:15:03;;;;;;;6.40;3.17;;;-3.30;99.90;;;;;;4909639;29;20028;-32
2024/01/14 02:17:29;;;;;;;19.55;8.35;;;-3.30;99.90;;;;;;4905423;29;20031;-33
2024/01/14 02:19:55;;;;;;;7.93;6.07;;;-3.30;99.90;;;;;;4906265;29;20040;-38
2024/01/14 02:22:27;;;;;;;8.70;6.07;;;-3.20;99.90;;;;;;4905381;29;20310;-33
2024/01/14 02:24:53;;;;;;;19.35;9.95;;;-3.20;99.90;;;;;;4904309;29;20032;-34
2024/01/14 02:27:19;;;;;;;15.85;9.63;;;-3.20;99.90;;;;;;4906692;29;20044;-35
2024/01/14 02:29:46;;;;;;;7.07;4.03;;;-3.20;99.90;;;;;;4903346;29;20039;-34
2024/01/14 02:32:12;;;;;;;14.30;5.45;;;-3.20;99.90;;;;;;4909363;29;20431;-33
2024/01/14 02:34:37;;;;;;;14.95;8.95;;;-3.20;99.90;;;;;;4904063;29;20092;-36
2024/01/14 02:37:03;;;;;;;5.28;4.00;;;-3.20;99.90;;;;;;4909159;29;20040;-34
2024/01/14 02:39:29;;;;;;;19.02;10.32;;;-3.20;99.90;;;;;;4910131;29;20344;-35
2024/01/14 02:41:55;;;;;;;20.48;8.55;;;-3.20;99.90;;;;;;4905256;29;20048;-35
2024/01/14 02:44:20;;;;;;;14.32;7.10;;;-3.20;99.90;;;;;;4904487;29;20419;-36
2024/01/14 02:46:46;;;;;;;16.27;7.13;;;-3.20;99.90;;;;;;4901210;29;20024;-33
2024/01/14 02:49:12;;;;;;;10.60;7.05;;;-3.30;99.90;;;;;;4904247;29;20034;-33
2024/01/14 02:51:37;;;;;;;22.58;8.88;;;-3.20;99.90;;;;;;4903701;29;20051;-34
2024/01/14 02:54:03;;;;;;;7.25;6.03;;;-3.30;99.90;;;;;;4906224;29;20055;-38
2024/01/14 02:56:29;;;;;;;14.52;7.40;;;-3.30;99.90;;;;;;4904046;29;20032;-34
2024/01/14 02:58:56;;;;;;;17.73;9.52;;;-3.30;99.90;;;;;;4906256;29;20028;-34
2024/01/14 03:01:21;;;;;;;10.13;7.00;;;-3.30;99.90;;;;;;4904873;29;20036;-35
2024/01/14 03:03:47;;;;;;;10.80;5.95;;;-3.30;99.90;;;;;;4903536;29;20645;-37
2024/01/14 03:06:13;;;;;;;10.70;8.15;;;-3.30;99.90;;;;;;4903887;29;20048;-37
2024/01/14 03:08:39;;;;;;;16.45;8.68;;;-3.30;99.90;;;;;;4903766;29;20048;-36
2024/01/14 03:11:04;;;;;;;17.33;9.18;;;-3.30;99.90;;;;;;4903865;29;20522;-33
2024/01/14 03:13:30;;;;;;;24.15;9.73;;;-3.20;99.90;;;;;;4904980;29;20037;-33
2024/01/14 03:15:56;;;;;;;15.88;9.00;;;-3.20;99.90;;;;;;4908371;29;20120;-33
2024/01/14 03:18:21;;;;;;;8.13;5.82;;;-3.30;99.90;;;;;;4903884;29;20028;-33
2024/01/14 03:20:47;;;;;;;9.60;7.32;;;-3.30;99.90;;;;;;4903339;29;20041;-34
2024/01/14 03:23:13;;;;;;;12.60;5.35;;;-3.30;99.90;;;;;;4906738;29;20103;-34
2024/01/14 03:25:38;;;;;;;11.88;6.85;;;-3.30;99.90;;;;;;4904880;29;20505;-34
2024/01/14 03:28:04;;;;;;;10.85;8.35;;;-3.30;99.90;;;;;;4905869;29;20036;-34
2024/01/14 03:30:30;;;;;;;7.63;6.80;;;-3.30;99.90;;;;;;4900929;29;20032;-36
2024/01/14 03:32:55;;;;;;;1.35;1.33;;;-3.30;99.90;;;;;;4904022;29;20037;-33
2024/01/14 03:35:21;;;;;;;5.38;2.00;;;-3.30;99.90;;;;;;4905272;29;20044;-35
2024/01/14 03:37:46;;;;;;;10.80;6.55;;;-3.30;99.90;;;;;;4904433;29;20490;-34
2024/01/14 03:40:12;;;;;;;11.65;6.22;;;-3.30;99.90;;;;;;4903998;29;20059;-33
2024/01/14 03:42:38;;;;;;;16.05;8.98;;;-3.30;99.90;;;;;;4904616;29;20043;-33
2024/01/14 03:45:04;;;;;;;14.82;8.18;;;-3.30;99.90;;;;;;4907745;29;20035;-33
2024/01/14 03:47:30;;;;;;;10.93;6.88;;;-3.30;99.90;;;;;;4909351;29;20036;-34
2024/01/14 03:49:56;;;;;;;6.88;5.75;;;-3.30;99.90;;;;;;4895035;29;20079;-39
2024/01/14 03:52:21;;;;;;;7.78;4.18;;;-3.30;99.90;;;;;;4909354;29;20036;-39
2024/01/14 03:54:47;;;;;;;3.22;2.92;;;-3.40;99.90;;;;;;4911592;29;20517;-41
2024/01/14 03:57:13;;;;;;;5.70;5.22;;;-3.40;99.90;;;;;;4910022;29;20123;-38
2024/01/14 03:59:38;;;;;;;19.02;10.13;;;-3.40;99.90;;;;;;4906978;29;20035;-40
2024/01/14 04:02:04;;;;;;;8.20;7.13;;;-3.40;99.90;;;;;;4909175;29;20036;-42
2024/01/14 04:04:30;;;;;;;3.38;3.10;;;-3.40;99.90;;;;;;4909374;29;20037;-40
2024/01/14 04:06:55;;;;;;;9.57;7.13;;;-3.50;99.90;;;;;;4910834;29;20805;-40
2024/01/14 04:09:21;;;;;;;19.67;8.85;;;-3.50;99.90;;;;;;4911105;29;20040;-41
2024/01/14 04:11:47;;;;;;;15.10;8.63;;;-3.40;99.90;;;;;;4909237;29;20395;-41
2024/01/14 04:14:12;;;;;;;11.52;6.65;;;-3.40;99.90;;;;;;4904187;29;20118;-41
2024/01/14 04:16:40;;;;;;;24.13;10.00;;;-3.40;99.90;;;;;;4909346;29;20036;-39
2024/01/14 04:19:06;;;;;;;3.97;3.65;;;-3.30;99.90;;;;;;4904899;29;20487;-35
2024/01/14 04:21:32;;;;;;;5.28;4.15;;;-3.40;99.90;;;;;;4907641;29;20503;-38
2024/01/14 04:24:04;;;;;;;3.92;3.60;;;-3.50;99.90;;;;;;4907643;29;20506;-42
2024/01/14 04:26:30;;;;;;;15.90;7.40;;;-3.50;99.90;;;;;;4909198;29;20064;-38
2024/01/14 04:28:56;;;;;;;10.65;7.32;;;-3.50;99.90;;;;;;4909464;29;20036;-41
2024/01/14 04:31:22;;;;;;;16.42;9.13;;;-3.50;99.90;;;;;;4907069;29;20068;-39
2024/01/14 04:33:48;;;;;;;11.50;7.70;;;-3.50;99.90;;;;;;4905388;29;20478;-41
2024/01/14 04:36:17;;;;;;;5.38;4.80;;;-3.50;99.90;;;;;;4910599;29;20039;-40
2024/01/14 04:38:43;;;;;;;4.82;3.78;;;-3.50;99.90;;;;;;4908118;29;20028;-37
2024/01/14 04:41:08;;;;;;;18.27;8.57;;;-3.50;99.90;;;;;;4904735;29;20035;-42
2024/01/14 04:43:35;;;;;;;20.15;8.60;;;-3.50;99.90;;;;;;4891385;29;20462;-40
2024/01/14 04:46:01;;;;;;;20.60;9.63;;;-3.50;99.90;;;;;;4907653;29;20036;-40
2024/01/14 04:48:27;;;;;;;5.97;5.28;;;-3.50;99.90;;;;;;4905806;29;20424;-39
2024/01/14 04:50:53;;;;;;;15.18;8.35;;;-3.60;99.90;;;;;;4908381;29;20109;-40
2024/01/14 04:53:18;;;;;;;15.93;5.85;;;-3.60;99.90;;;;;;4905303;29;20087;-38
2024/01/14 04:55:45;;;;;;;9.48;6.57;;;-3.70;99.90;;;;;;4906560;29;20059;-39
2024/01/14 04:58:11;;;;;;;15.82;7.60;;;-3.60;99.90;;;;;;4912850;29;20048;-41
2024/01/14 05:00:36;;;;;;;18.92;7.57;;;-3.70;99.90;;;;;;4908363;29;20509;-41
2024/01/14 05:03:02;;;;;;;14.07;7.68;;;-3.80;99.90;;;;;;4902110;29;20039;-40
2024/01/14 05:05:28;;;;;;;12.00;7.43;;;-3.80;99.90;;;;;;4908318;29;20498;-41
2024/01/14 05:07:54;;;;;;;16.98;8.70;;;-3.80;99.90;;;;;;4902617;29;20032;-40
2024/01/14 05:10:19;;;;;;;17.65;7.57;;;-3.70;99.90;;;;;;4904794;29;20024;-41
2024/01/14 05:12:45;;;;;;;17.55;10.95;;;-3.70;99.90;;;;;;4908315;29;20295;-39
2024/01/14 05:15:10;;;;;;;18.73;8.02;;;-3.80;99.90;;;;;;4906893;29;20032;-40
2024/01/14 05:17:36;;;;;;;15.75;8.05;;;-3.80;99.90;;;;;;4913089;29;20027;-41
2024/01/14 05:20:02;;;;;;;6.55;5.20;;;-3.80;99.90;;;;;;4905907;29;20528;-39
2024/01/14 05:22:27;;;;;;;4.53;4.13;;;-3.80;99.90;;;;;;4906575;29;20055;-39
2024/01/14 05:24:53;;;;;;;10.18;5.97;;;-3.70;99.90;;;;;;4905553;29;20024;-41
2024/01/14 05:27:18;;;;;;;15.35;6.90;;;-3.70;99.90;;;;;;4904752;29;20065;-39
2024/01/14 05:29:44;;;;;;;15.43;7.85;;;-3.60;99.90;;;;;;4903836;29;20028;-38
2024/01/14 05:32:13;;;;;;;11.65;6.90;;;-3.60;99.90;;;;;;4899416;29;20124;-35
2024/01/14 05:34:39;;;;;;;18.27;9.40;;;-3.60;99.90;;;;;;4905114;29;20080;-34
2024/01/14 05:37:05;;;;;;;17.20;7.53;;;-3.60;99.90;;;;;;4905426;29;20036;-39
2024/01/14 05:39:32;;;;;;;26.02;10.20;;;-3.50;99.90;;;;;;4903412;29;20474;-36
2024/01/14 05:41:58;;;;;;;17.40;12.35;;;-3.50;99.90;;;;;;4900324;29;20052;-33
2024/01/14 05:44:24;;;;;;;20.17;10.63;;;-3.50;99.90;;;;;;4905079;29;20375;-36
2024/01/14 05:46:49;;;;;;;5.93;3.08;;;-3.50;99.90;;;;;;4905367;29;20482;-34
2024/01/14 05:49:15;;;;;;;15.20;7.97;;;-3.50;99.90;;;;;;4907340;29;20028;-36
2024/01/14 05:51:40;;;;;;;12.07;7.28;;;-3.60;99.90;;;;;;4906254;29;20115;-39
2024/01/14 05:54:06;;;;;;;14.48;8.82;;;-3.60;99.90;;;;;;4904272;29;20032;-39
2024/01/14 05:56:32;;;;;;;12.75;6.65;;;-3.60;99.90;;;;;;4908377;29;20522;-36
2024/01/14 05:59:00;;;;;;;11.20;5.38;;;-3.60;99.90;;;;;;4905467;29;20036;-33
2024/01/14 06:01:29;;;;;;;19.85;9.88;;;-3.60;99.90;;;;;;4901854;29;20041;-33
2024/01/14 06:03:55;;;;;;;10.60;6.45;;;-3.60;99.90;;;;;;4904827;29;20032;-34
2024/01/14 06:06:21;;;;;;;31.10;10.80;;;-3.60;99.90;;;;;;4910064;29;20032;-34
2024/01/14 06:08:46;;;;;;;12.02;7.03;;;-3.70;99.90;;;;;;4902227;29;20191;-34
2024/01/14 06:11:13;;;;;;;5.78;4.15;;;-3.70;99.90;;;;;;4904963;29;20686;-35
2024/01/14 06:13:39;;;;;;;3.22;2.47;;;-3.70;99.90;;;;;;4904154;29;20036;-34
2024/01/14 06:16:05;;;;;;;22.30;10.73;;;-3.80;99.90;;;;;;4904419;29;20035;-36
2024/01/14 06:18:30;;;;;;;18.08;8.75;;;-3.80;99.90;;;;;;4905188;29;20032;-33
2024/01/14 06:20:59;;;;;;;15.80;5.88;;;-3.80;99.90;;;;;;4889230;29;20028;-38
2024/01/14 06:23:25;;;;;;;11.35;7.68;;;-3.90;99.90;;;;;;4906389;29;20035;-39
2024/01/14 06:25:51;;;;;;;11.80;5.57;;;-3.80;99.90;;;;;;4903227;29;20032;-41
2024/01/14 06:28:16;;;;;;;20.17;9.57;;;-3.90;99.90;;;;;;4905984;29;20078;-40
2024/01/14 06:30:42;;;;;;;22.35;10.00;;;-3.90;99.90;;;;;;4887765;29;20028;-39
2024/01/14 06:33:07;;;;;;;16.60;8.15;;;-3.80;99.90;;;;;;4904500;29;20036;-41
2024/01/14 06:35:33;;;;;;;16.58;8.00;;;-3.90;99.90;;;;;;4903447;29;20034;-42
2024/01/14 06:37:58;;;;;;;20.27;8.90;;;-3.90;99.90;;;;;;4905054;29;20028;-39
2024/01/14 06:40:24;;;;;;;27.67;9.88;;;-3.90;99.90;;;;;;4906811;29;20063;-40
2024/01/14 06:42:50;;;;;;;12.07;7.32;;;-3.90;99.90;;;;;;4906160;29;20036;-41
2024/01/14 06:45:15;;;;;;;18.83;10.93;;;-3.90;99.90;;;;;;4904747;29;20031;-41
2024/01/14 06:47:41;;;;;;;15.52;6.75;;;-3.90;99.90;;;;;;4904602;29;20063;-41
2024/01/14 06:50:07;;;;;;;5.35;3.10;;;-3.90;99.90;;;;;;4904416;29;20036;-33
2024/01/14 06:52:33;;;;;;;2.63;2.53;;;-3.90;99.90;;;;;;4905294;29;20382;-33
2024/01/14 06:54:58;;;;;;;23.05;9.40;;;-3.90;99.90;;;;;;4905516;29;20043;-33
2024/01/14 06:57:24;;;;;;;14.13;7.22;;;-4.00;99.90;;;;;;4902115;29;20490;-38
2024/01/14 06:59:50;;;;;;;6.90;6.28;;;-3.90;99.90;;;;;;4904415;29;20035;-35
2024/01/14 07:02:15;;;;;;;13.75;8.60;;;-3.90;99.90;;;;;;4904558;29;20055;-35
2024/01/14 07:04:41;;;;;;;8.98;6.53;;;-3.90;99.90;;;;;;4901147;29;20039;-40
2024/01/14 07:07:08;;;;;;;15.90;7.55;;;-4.00;99.90;;;;;;4908068;29;20153;-33
2024/01/14 07:09:34;;;;;;;13.15;6.00;;;-3.90;99.90;;;;;;4904021;29;20091;-33
2024/01/14 07:12:00;;;;;;;14.25;7.72;;;-4.00;99.90;;;;;;4904976;29;20087;-33
2024/01/14 07:14:26;;;;;;;9.75;5.60;;;-4.10;99.90;;;;;;4903977;29;20043;-35
2024/01/14 07:16:52;;;;;;;13.50;5.80;;;-4.10;99.90;;;;;;4904807;29;20033;-33
2024/01/14 07:19:17;;;;;;;10.82;6.63;;;-4.10;99.90;;;;;;4908511;29;20739;-34
2024/01/14 07:21:43;;;;;;;19.20;8.65;;;-4.10;99.90;;;;;;4909784;29;20047;-35
2024/01/14 07:24:09;;;;;;;6.88;5.78;;;-4.10;99.90;;;;;;4907217;29;20102;-36
2024/01/14 07:26:35;;;;;;;22.30;8.88;;;-4.10;99.90;;;;;;4907675;29;20541;-33
2024/01/14 07:29:01;;;;;;;14.70;7.78;;;-4.00;99.90;;;;;;4909621;29;20123;-38
2024/01/14 07:31:27;;;;;;;15.57;8.55;;;-4.00;99.90;;;;;;4907083;29;20043;-37
2024/01/14 07:33:53;;;;;;;9.35;5.22;;;-4.00;99.90;;;;;;4907576;29;20130;-34
2024/01/14 07:36:19;;;;;;;14.38;8.05;;;-4.00;99.90;;;;;;4906322;29;20115;-35
2024/01/14 07:38:46;;;;;;;13.73;8.00;;;-4.10;99.90;;;;;;4907384;29;20036;-37
2024/01/14 07:41:15;;;;;;;12.10;7.17;;;-4.20;99.90;;;;;;4910132;29;20095;-41
2024/01/14 07:43:42;;;;;;;15.63;7.75;;;-4.20;99.90;;;;;;4905407;29;20059;-36
2024/01/14 07:46:08;;;;;;;19.75;9.57;;;-4.10;99.90;;;;;;4911003;29;20509;-41
2024/01/14 07:48:34;;;;;;;11.80;6.53;;;-4.10;99.90;;;;;;4893205;29;20036;-36
2024/01/14 07:51:01;;;;;;;13.52;6.78;;;-4.10;99.90;;;;;;4904826;29;20107;-41
2024/01/14 07:53:27;;;;;;;2.78;2.67;;;-4.10;99.90;;;;;;4908948;29;20442;-43
2024/01/14 07:55:52;;;;;;;11.85;5.18;;;-4.10;99.90;;;;;;4909153;29;20035;-41
2024/01/14 07:58:18;;;;;;;19.25;7.68;;;-4.10;99.90;;;;;;4906725;29;20262;-41
2024/01/14 08:00:44;;;;;;;16.85;9.02;;;-4.10;99.90;;;;;;4890622;29;20754;-37
2024/01/14 08:03:10;;;;;;;8.40;4.47;;;-4.10;99.90;;;;;;4905337;29;20032;-41
2024/01/14 08:05:38;;;;;;;12.48;4.35;;;-4.10;99.90;;;;;;4909492;29;20723;-41
2024/01/14 08:08:04;;;;;;;4.93;4.40;;;-4.10;99.90;;;;;;4908906;29;20054;-39
2024/01/14 08:10:30;;;;;;;14.07;5.85;;;-4.20;99.90;;;;;;4907550;29;20035;-40
2024/01/14 08:12:55;;;;;;;12.93;8.32;;;-4.10;99.90;;;;;;4905685;29;20032;-40
2024/01/14 08:15:21;;;;;;;13.50;7.45;;;-4.10;99.90;;;;;;4906341;29;20298;-38
2024/01/14 08:17:46;;;;;;;16.27;7.68;;;-4.00;99.90;;;;;;4911603;29;20037;-41
2024/01/14 08:20:12;;;;;;;17.58;10.05;;;-4.00;99.90;;;;;;4907525;29;20613;-41
2024/01/14 08:22:39;;;;;;;10.95;4.70;;;-4.00;99.90;;;;;;4905558;29;20116;-38
2024/01/14 08:25:07;;;;;;;8.98;6.57;;;-4.00;99.90;;;;;;4907918;29;20064;-41
2024/01/14 08:27:33;;;;;;;8.00;5.63;;;-3.90;99.90;;;;;;4906615;29;20416;-40
2024/01/14 08:29:59;;;;;;;9.77;6.78;;;-3.90;99.90;;;;;;4906806;29;20047;-40
2024/01/14 08:32:24;;;;;;;8.05;5.15;;;-4.00;99.90;;;;;;4905618;29;20028;-41
2024/01/14 08:34:50;;;;;;;20.73;10.43;;;-4.00;99.90;;;;;;4908016;29;20462;-39
2024/01/14 08:37:15;;;;;;;17.67;10.52;;;-3.90;99.90;;;;;;4908800;29;20071;-41
2024/01/14 08:39:41;;;;;;;11.23;9.15;;;-3.90;99.90;;;;;;4905975;29;20399;-36
2024/01/14 08:42:07;;;;;;;11.57;7.90;;;-3.90;99.90;;;;;;4909524;29;20036;-41
2024/01/14 08:44:33;;;;;;;16.38;9.30;;;-3.80;99.90;;;;;;4909729;29;21751;-38
2024/01/14 08:46:59;;;;;;;17.48;10.15;;;-3.80;99.90;;;;;;4909929;29;20033;-40
2024/01/14 08:49:26;;;;;;;19.88;12.07;;;-3.90;99.90;;;;;;4909989;29;20032;-40
2024/01/14 08:51:52;;;;;;;20.15;14.13;;;-3.80;99.90;;;;;;4912161;29;20028;-41
2024/01/14 08:54:18;;;;;;;23.48;12.75;;;-3.80;99.90;;;;;;4906737;29;20030;-41
2024/01/14 08:56:43;;;;;;;17.33;11.60;;;-3.80;99.90;;;;;;4910654;29;20027;-38
2024/01/14 08:59:09;;;;;;;13.68;8.20;;;-3.80;99.90;;;;;;4907214;29;20028;-36
2024/01/14 09:01:35;;;;;;;8.48;7.22;;;-3.80;99.90;;;;;;4905159;29;20370;-41
2024/01/14 09:04:01;;;;;;;37.63;19.48;;;-3.80;99.90;;;;;;4906668;29;20036;-40
2024/01/14 09:06:26;;;;;;;38.60;17.27;;;-3.70;99.90;;;;;;4907254;29;20491;-37
2024/01/14 09:08:52;;;;;;;13.02;6.13;;;-3.70;99.90;;;;;;4906021;29;20051;-40
2024/01/14 09:11:17;;;;;;;29.50;14.48;;;-3.70;99.90;;;;;;4906321;29;20068;-41
2024/01/14 09:13:45;;;;;;;25.55;11.63;;;-3.60;99.90;;;;;;4906207;29;20024;-42
2024/01/14 09:16:11;;;;;;;25.88;12.77;;;-3.60;99.90;;;;;;4907432;29;20032;-42
2024/01/14 09:18:37;;;;;;;34.40;18.77;;;-3.60;99.90;;;;;;4911097;29;20083;-43
2024/01/14 09:21:03;;;;;;;25.60;13.38;;;-3.50;99.90;;;;;;4905931;29;20622;-40
2024/01/14 09:23:29;;;;;;;17.70;9.73;;;-3.50;99.90;;;;;;4907233;29;20537;-39
2024/01/14 09:25:56;;;;;;;30.85;14.27;;;-3.50;99.90;;;;;;4907579;29;20132;-38
2024/01/14 09:28:24;;;;;;;17.85;9.75;;;-3.50;99.90;;;;;;4906821;29;20032;-39
2024/01/14 09:30:51;;;;;;;8.05;5.75;;;-3.50;99.90;;;;;;4909223;29;20075;-41
2024/01/14 09:33:17;;;;;;;7.32;5.30;;;-3.50;99.90;;;;;;4906128;29;20056;-38
2024/01/14 09:35:42;;;;;;;12.10;7.00;;;-3.50;99.90;;;;;;4906360;29;20036;-41
2024/01/14 09:38:09;;;;;;;11.00;7.45;;;-3.50;99.90;;;;;;4908981;29;20413;-37
2024/01/14 09:40:35;;;;;;;6.43;4.05;;;-3.40;99.90;;;;;;4908229;29;20031;-38
2024/01/14 09:43:06;;;;;;;13.52;7.65;;;-3.40;99.90;;;;;;4905468;29;20036;-38
2024/01/14 09:45:35;;;;;;;18.75;6.38;;;-3.40;99.90;;;;;;4904765;29;20064;-41
2024/01/14 09:48:02;;;;;;;15.93;7.38;;;-3.40;99.90;;;;;;4906663;29;20040;-41
2024/01/14 09:50:29;;;;;;;12.68;7.50;;;-3.40;99.90;;;;;;4904071;29;20058;-38
2024/01/14 09:52:58;;;;;;;19.00;9.02;;;-3.40;99.90;;;;;;4903032;29;20092;-41
2024/01/14 09:55:24;;;;;;;14.88;9.77;;;-3.30;99.90;;;;;;4907093;29;20549;-40
2024/01/14 09:57:52;;;;;;;11.73;7.97;;;-3.30;99.90;;;;;;4905636;29;20048;-40
2024/01/14 10:00:22;;;;;;;6.95;4.40;;;-3.20;99.90;;;;;;4909932;29;20036;-33
2024/01/14 10:02:48;;;;;;;22.67;9.15;;;-3.20;99.90;;;;;;4909130;29;20205;-33
2024/01/14 10:05:15;;;;;;;7.97;4.85;;;-3.20;99.90;;;;;;4908047;29;20078;-37
2024/01/14 10:07:43;;;;;;;8.48;6.13;;;-3.10;99.90;;;;;;4911234;29;20478;-34
2024/01/14 10:10:09;;;;;;;14.45;7.82;;;-3.20;99.90;;;;;;4913420;29;20028;-34
2024/01/14 10:12:35;;;;;;;16.30;7.65;;;-3.20;99.90;;;;;;4909218;29;20024;-33
2024/01/14 10:15:01;;;;;;;12.32;7.57;;;-3.10;99.90;;;;;;4907169;29;20059;-33
2024/01/14 10:17:27;;;;;;;12.57;7.60;;;-3.10;99.90;;;;;;4908693;29;20055;-33
2024/01/14 10:19:54;;;;;;;6.72;5.97;;;-3.10;99.90;;;;;;4907006;29;20028;-32
2024/01/14 10:22:21;;;;;;;17.98;9.23;;;-3.10;99.90;;;;;;4909292;29;20118;-32
2024/01/14 10:24:51;;;;;;;22.92;8.93;;;-3.00;99.90;;;;;;4906177;29;20091;-35
2024/01/14 10:27:17;;;;;;;12.63;7.07;;;-3.00;99.90;;;;;;4910336;29;20116;-35
2024/01/14 10:29:43;;;;;;;18.00;8.23;;;-2.90;99.90;;;;;;4903528;29;20043;-33
2024/01/14 10:32:08;;;;;;;21.73;10.20;;;-2.90;99.90;;;;;;4906341;29;20052;-32
2024/01/14 10:34:34;;;;;;;8.10;6.22;;;-2.90;99.90;;;;;;4904645;29;20110;-32
2024/01/14 10:37:03;;;;;;;15.00;7.80;;;-2.80;99.90;;;;;;4901678;29;20037;-34
2024/01/14 10:39:32;;;;;;;19.00;9.65;;;-2.70;99.90;;;;;;4905028;29;20028;-33
2024/01/14 10:42:01;;;;;;;14.98;8.90;;;-2.70;99.90;;;;;;4888306;29;20506;-33
2024/01/14 10:44:31;;;;;;;9.30;6.10;;;-2.70;99.90;;;;;;4910947;29;20035;-37
2024/01/14 10:47:01;;;;;;;12.95;7.72;;;-2.70;99.90;;;;;;4906456;29;20524;-32
2024/01/14 10:49:27;;;;;;;12.65;6.65;;;-2.60;99.90;;;;;;4908358;29;20027;-33
2024/01/14 10:52:23;;;;;;;19.63;8.32;;;-2.60;99.90;;;;;;4908822;29;20024;-36
2024/01/14 10:54:52;;;;;;;21.02;10.18;;;-2.60;99.90;;;;;;4889032;29;20048;-36
2024/01/14 10:57:36;;;;;;;23.80;10.23;;;-2.60;99.90;;;;;;4908833;29;20033;-35
2024/01/14 11:00:04;;;;;;;22.33;10.00;;;-2.50;99.90;;;;;;4906131;29;20418;-36
2024/01/14 11:02:32;;;;;;;15.00;8.43;;;-2.50;99.90;;;;;;4906839;29;20091;-35
2024/01/14 11:04:59;;;;;;;18.25;7.75;;;-2.50;99.90;;;;;;4909101;29;20036;-35
2024/01/14 11:07:25;;;;;;;13.18;6.18;;;-2.50;99.90;;;;;;4906129;29;20079;-32
2024/01/14 11:09:52;;;;;;;18.83;9.63;;;-2.50;99.90;;;;;;4908219;29;20071;-35
2024/01/14 11:12:23;;;;;;;11.82;7.22;;;-2.40;99.90;;;;;;4908577;29;20061;-35
2024/01/14 11:14:55;;;;;;;16.13;9.93;;;-2.40;99.90;;;;;;4903169;29;20033;-35
2024/01/14 11:17:50;;;;;;;14.82;8.35;;;-2.30;99.90;;;;;;4904652;29;20036;-35
2024/01/14 11:20:18;;;;;;;7.93;6.75;;;-2.30;99.90;;;;;;4901580;29;20071;-35
2024/01/14 11:22:44;;;;;;;16.35;7.38;;;-2.30;99.90;;;;;;4903854;29;20036;-36
2024/01/14 11:25:15;;;;;;;10.05;6.47;;;-2.20;99.90;;;;;;4905665;29;20067;-40
2024/01/14 11:27:40;;;;;;;22.90;10.05;;;-2.20;99.90;;;;;;4905403;29;20107;-37
2024/01/14 11:30:11;;;;;;;13.63;6.30;;;-2.20;99.90;;;;;;4904662;29;20028;-34
2024/01/14 11:32:37;;;;;;;7.93;6.65;;;-2.10;99.90;;;;;;4910212;29;20092;-35
2024/01/14 11:35:03;;;;;;;14.90;9.43;;;-2.10;99.90;;;;;;4908314;29;20024;-35
2024/01/14 11:37:29;;;;;;;14.80;8.30;;;-2.10;99.90;;;;;;4909001;29;20028;-36
2024/01/14 11:40:23;;;;;;;21.42;9.45;;;-2.00;99.90;;;;;;4909866;29;20039;-35
2024/01/14 11:42:53;;;;;;;13.40;6.40;;;-2.00;99.90;;;;;;4896447;29;20055;-36
2024/01/14 11:45:25;;;;;;;14.93;8.95;;;-2.00;99.90;;;;;;4892992;29;20402;-33
2024/01/14 11:47:55;;;;;;;8.43;4.55;;;-1.90;99.90;;;;;;4902882;29;20239;-32
2024/01/14 11:50:23;;;;;;;7.85;6.15;;;-1.90;99.90;;;;;;4907757;29;20024;-33
2024/01/14 11:52:51;;;;;;;14.30;9.30;;;-1.90;99.90;;;;;;4905215;29;20038;-35
2024/01/14 11:55:30;;;;;;;14.13;7.82;;;-1.90;99.90;;;;;;4904914;29;20060;-35
2024/01/14 11:58:15;;;;;;;14.25;8.15;;;-1.90;99.90;;;;;;4907388;29;20036;-34
2024/01/14 12:00:41;;;;;;;18.00;7.57;;;-1.80;99.90;;;;;;4907306;29;20067;-35
2024/01/14 12:03:11;;;;;;;18.17;8.73;;;-1.80;99.90;;;;;;4908722;29;20033;-35
2024/01/14 12:05:40;;;;;;;13.90;7.75;;;-1.70;99.90;;;;;;4909010;29;20060;-32
2024/01/14 12:08:06;;;;;;;19.27;8.95;;;-1.70;99.90;;;;;;4916184;29;20769;-35
2024/01/14 12:10:32;;;;;;;11.52;5.28;;;-1.50;99.90;;;;;;4907847;29;20131;-32
2024/01/14 12:13:02;;;;;;;16.27;8.98;;;-1.50;99.90;;;;;;4908750;29;20067;-34
2024/01/14 12:15:28;;;;;;;10.23;5.72;;;-1.40;99.90;;;;;;4911426;29;20107;-33
2024/01/14 12:17:55;;;;;;;8.25;6.95;;;-1.40;99.90;;;;;;4912781;29;20630;-33
2024/01/14 12:20:22;;;;;;;12.85;7.35;;;-1.30;99.90;;;;;;4913164;29;20032;-32
2024/01/14 12:22:47;;;;;;;18.50;7.85;;;-1.30;99.90;;;;;;4912184;29;20495;-34
2024/01/14 12:25:14;;;;;;;7.13;6.43;;;-1.20;99.90;;;;;;4911950;29;20123;-35
2024/01/14 12:27:41;;;;;;;13.63;7.25;;;-1.20;99.90;;;;;;4909507;29;20035;-38
2024/01/14 12:30:08;;;;;;;17.15;7.25;;;-1.20;99.90;;;;;;4913045;29;20032;-35
2024/01/14 12:32:34;;;;;;;12.40;7.32;;;-1.00;99.90;;;;;;4913139;29;20482;-33
2024/01/14 12:34:59;;;;;;;16.13;8.70;;;-1.00;99.90;;;;;;4910967;29;20031;-33